createdAt,value
2019-04-27T00:01:34.309Z,100509.00
2019-04-27T00:04:36.432Z,100522.00
2019-04-27T00:07:35.007Z,100508.00
2019-04-27T00:10:13.709Z,100492.00
2019-04-27T00:12:47.738Z,100482.00
2019-04-27T00:15:31.204Z,100478.00
2019-04-27T00:18:15.593Z,100489.00
2019-04-27T00:21:08.279Z,100489.00
2019-04-27T00:23:39.868Z,100527.00
2019-04-27T00:26:13.447Z,100533.00
2019-04-27T00:28:53.744Z,100545.00
2019-04-27T00:31:25.435Z,100551.00
2019-04-27T00:34:04.483Z,100552.00
2019-04-27T00:36:40.843Z,100545.00
2019-04-27T00:39:23.063Z,100548.00
2019-04-27T00:41:53.290Z,100548.00
2019-04-27T00:44:23.753Z,100547.00
2019-04-27T00:46:53.912Z,100538.00
2019-04-27T00:49:24.000Z,100525.00
2019-04-27T00:51:54.039Z,100531.00
2019-04-27T00:54:24.764Z,100532.00
2019-04-27T00:57:08.174Z,100524.00
2019-04-27T00:59:50.409Z,100525.00
2019-04-27T01:02:37.250Z,100523.00
2019-04-27T01:05:14.016Z,100529.00
2019-04-27T01:07:44.082Z,100525.00
2019-04-27T01:10:14.367Z,100545.00
2019-04-27T01:12:44.507Z,100533.00
2019-04-27T01:15:15.079Z,100544.00
2019-04-27T01:17:45.229Z,100556.00
2019-04-27T01:20:15.560Z,100559.00
2019-04-27T01:22:45.639Z,100586.00
2019-04-27T01:25:15.853Z,100582.00
2019-04-27T01:27:54.255Z,100592.00
2019-04-27T01:30:34.095Z,100591.00
2019-04-27T01:33:04.410Z,100593.00
2019-04-27T01:35:34.538Z,100593.00
2019-04-27T01:38:04.644Z,100588.00
2019-04-27T01:40:35.020Z,100589.00
2019-04-27T01:43:05.494Z,100575.00
2019-04-27T01:45:35.989Z,100594.00
2019-04-27T01:48:06.255Z,100600.00
2019-04-27T01:50:36.608Z,100592.00
2019-04-27T01:53:06.574Z,100594.00
2019-04-27T01:55:38.671Z,100605.00
2019-04-27T01:58:10.858Z,100618.00
2019-04-27T02:01:00.406Z,100621.00
2019-04-27T02:03:39.997Z,100627.00
2019-04-27T02:06:10.223Z,100614.00
2019-04-27T02:08:40.601Z,100612.00
2019-04-27T02:11:11.115Z,100609.00
2019-04-27T02:13:41.140Z,100621.00
2019-04-27T02:16:11.256Z,100608.00
2019-04-27T02:18:41.339Z,100593.00
2019-04-27T02:21:11.356Z,100601.00
2019-04-27T02:23:41.428Z,100593.00
2019-04-27T02:26:11.557Z,100598.00
2019-04-27T02:28:49.609Z,100597.00
2019-04-27T02:31:36.834Z,100599.00
2019-04-27T02:34:10.569Z,100599.00
2019-04-27T02:36:40.743Z,100597.00
2019-04-27T02:39:10.753Z,100587.00
2019-04-27T02:41:40.777Z,100588.00
2019-04-27T02:44:21.501Z,100590.00
2019-04-27T02:46:51.616Z,100592.00
2019-04-27T02:49:21.601Z,100606.00
2019-04-27T02:52:09.530Z,100600.00
2019-04-27T02:54:40.078Z,100607.00
2019-04-27T02:57:10.449Z,100601.00
2019-04-27T02:59:40.541Z,100595.00
2019-04-27T03:02:20.300Z,100604.00
2019-04-27T03:04:50.560Z,100609.00
2019-04-27T03:07:20.826Z,100614.00
2019-04-27T03:09:51.278Z,100621.00
2019-04-27T03:12:23.503Z,100627.00
2019-04-27T03:15:00.056Z,100630.00
2019-04-27T03:17:35.467Z,100633.00
2019-04-27T03:20:20.830Z,100637.00
2019-04-27T03:22:56.784Z,100641.00
2019-04-27T03:25:40.227Z,100635.00
2019-04-27T03:28:12.410Z,100637.00
2019-04-27T03:30:43.632Z,100645.00
2019-04-27T03:33:14.073Z,100639.00
2019-04-27T03:35:44.390Z,100634.00
2019-04-27T03:38:14.961Z,100637.00
2019-04-27T03:40:45.156Z,100625.00
2019-04-27T03:43:20.145Z,100626.00
2019-04-27T03:45:52.503Z,100621.00
2019-04-27T03:48:22.182Z,100622.00
2019-04-27T03:51:11.376Z,100626.00
2019-04-27T03:53:49.906Z,100635.00
2019-04-27T03:56:25.603Z,100631.00
2019-04-27T03:59:03.303Z,100636.00
2019-04-27T04:01:33.514Z,100626.00
2019-04-27T04:04:03.669Z,100613.00
2019-04-27T04:06:33.749Z,100627.00
2019-04-27T04:09:05.556Z,100621.00
2019-04-27T04:11:42.474Z,100618.00
2019-04-27T04:14:16.532Z,100620.00
2019-04-27T04:16:59.156Z,100636.00
2019-04-27T04:19:29.630Z,100634.00
2019-04-27T04:21:59.970Z,100627.00
2019-04-27T04:24:31.800Z,100634.00
2019-04-27T04:27:01.740Z,100626.00
2019-04-27T04:29:31.753Z,100639.00
2019-04-27T04:32:01.780Z,100629.00
2019-04-27T04:34:31.955Z,100647.00
2019-04-27T04:37:01.947Z,100636.00
2019-04-27T04:39:32.042Z,100629.00
2019-04-27T04:42:10.215Z,100637.00
2019-04-27T04:44:52.232Z,100639.00
2019-04-27T04:47:35.721Z,100643.00
2019-04-27T04:50:14.449Z,100639.00
2019-04-27T04:52:39.659Z,100629.00
2019-04-27T04:55:10.321Z,100634.00
2019-04-27T04:57:40.522Z,100627.00
2019-04-27T05:00:11.163Z,100644.00
2019-04-27T05:02:41.182Z,100652.00
2019-04-27T05:05:11.352Z,100646.00
2019-04-27T05:07:41.383Z,100641.00
2019-04-27T05:10:11.505Z,100644.00
2019-04-27T05:12:41.594Z,100640.00
2019-04-27T05:15:11.925Z,100630.00
2019-04-27T05:17:42.002Z,100644.00
2019-04-27T05:20:26.983Z,100630.00
2019-04-27T05:22:57.083Z,100642.00
2019-04-27T05:25:28.600Z,100647.00
2019-04-27T05:27:59.645Z,100644.00
2019-04-27T05:30:29.822Z,100655.00
2019-04-27T05:32:59.887Z,100651.00
2019-04-27T05:35:30.051Z,100655.00
2019-04-27T05:38:00.898Z,100655.00
2019-04-27T05:40:31.959Z,100654.00
2019-04-27T05:43:01.995Z,100652.00
2019-04-27T05:46:43.500Z,100653.00
2019-04-27T05:49:36.255Z,100657.00
2019-04-27T05:52:25.283Z,100650.00
2019-04-27T05:54:55.536Z,100664.00
2019-04-27T05:57:25.693Z,100662.00
2019-04-27T05:59:56.342Z,100662.00
2019-04-27T06:02:30.218Z,100669.00
2019-04-27T06:05:00.378Z,100674.00
2019-04-27T06:07:30.476Z,100669.00
2019-04-27T06:10:00.541Z,100663.00
2019-04-27T06:12:30.582Z,100662.00
2019-04-27T06:15:00.659Z,100664.00
2019-04-27T06:17:30.852Z,100667.00
2019-04-27T06:20:00.927Z,100667.00
2019-04-27T06:22:30.958Z,100662.00
2019-04-27T06:25:00.991Z,100659.00
2019-04-27T06:27:31.130Z,100658.00
2019-04-27T06:30:01.380Z,100656.00
2019-04-27T06:32:32.012Z,100657.00
2019-04-27T06:35:02.112Z,100661.00
2019-04-27T06:37:32.138Z,100667.00
2019-04-27T06:40:02.157Z,100662.00
2019-04-27T06:42:32.139Z,100682.00
2019-04-27T06:45:02.230Z,100670.00
2019-04-27T06:47:32.618Z,100671.00
2019-04-27T06:50:02.623Z,100668.00
2019-04-27T06:52:32.692Z,100681.00
2019-04-27T06:55:02.972Z,100676.00
2019-04-27T06:57:33.213Z,100684.00
2019-04-27T07:00:03.705Z,100670.00
2019-04-27T07:02:33.759Z,100675.00
2019-04-27T07:05:03.845Z,100679.00
2019-04-27T07:07:34.147Z,100697.00
2019-04-27T07:10:04.569Z,100692.00
2019-04-27T07:12:34.656Z,100695.00
2019-04-27T07:15:05.007Z,100682.00
2019-04-27T07:17:35.191Z,100680.00
2019-04-27T07:20:05.624Z,100679.00
2019-04-27T07:22:35.728Z,100627.00
2019-04-27T07:25:05.894Z,100629.00
2019-04-27T07:27:35.884Z,100629.00
2019-04-27T07:30:11.462Z,100633.00
2019-04-27T07:32:39.179Z,100683.00
2019-04-27T07:35:09.900Z,100697.00
2019-04-27T07:37:39.971Z,100693.00
2019-04-27T07:40:10.395Z,100682.00
2019-04-27T07:42:42.146Z,100637.00
2019-04-27T07:45:34.808Z,100627.00
2019-04-27T07:48:05.547Z,100633.00
2019-04-27T07:50:35.750Z,100630.00
2019-04-27T07:53:05.915Z,100629.00
2019-04-27T07:55:35.962Z,100636.00
2019-04-27T07:58:05.952Z,100633.00
2019-04-27T08:00:35.767Z,100676.00
2019-04-27T08:03:05.477Z,100681.00
2019-04-27T08:05:35.258Z,100680.00
2019-04-27T08:08:04.964Z,100685.00
2019-04-27T08:10:34.706Z,100674.00
2019-04-27T08:13:04.435Z,100677.00
2019-04-27T08:15:34.399Z,100680.00
2019-04-27T08:18:04.138Z,100669.00
2019-04-27T08:20:33.893Z,100680.00
2019-04-27T08:23:03.605Z,100670.00
2019-04-27T08:25:33.399Z,100673.00
2019-04-27T08:28:14.267Z,100663.00
2019-04-27T08:31:06.103Z,100667.00
2019-04-27T08:33:35.831Z,100655.00
2019-04-27T08:36:05.752Z,100655.00
2019-04-27T08:38:35.456Z,100653.00
2019-04-27T08:41:05.347Z,100664.00
2019-04-27T08:43:38.822Z,100660.00
2019-04-27T08:46:08.833Z,100655.00
2019-04-27T08:48:39.324Z,100611.00
2019-04-27T08:51:09.660Z,100619.00
2019-04-27T08:53:39.881Z,100615.00
2019-04-27T08:56:09.595Z,100613.00
2019-04-27T08:58:39.334Z,100613.00
2019-04-27T09:01:10.369Z,100617.00
2019-04-27T09:03:40.096Z,100610.00
2019-04-27T09:06:11.486Z,100616.00
2019-04-27T09:08:49.736Z,100614.00
2019-04-27T09:11:31.552Z,100621.00
2019-04-27T09:14:23.541Z,100609.00
2019-04-27T09:17:02.274Z,100595.00
2019-04-27T09:19:49.206Z,100604.00
2019-04-27T09:22:20.742Z,100606.00
2019-04-27T09:24:50.394Z,100604.00
2019-04-27T09:27:20.127Z,100616.00
2019-04-27T09:29:50.132Z,100616.00
2019-04-27T09:32:19.831Z,100618.00
2019-04-27T09:34:49.559Z,100611.00
2019-04-27T09:37:19.340Z,100615.00
2019-04-27T09:39:49.012Z,100614.00
2019-04-27T09:42:18.700Z,100617.00
2019-04-27T09:44:48.374Z,100617.00
2019-04-27T09:47:18.072Z,100615.00
2019-04-27T09:49:47.739Z,100606.00
2019-04-27T09:52:24.303Z,100610.00
2019-04-27T09:54:49.159Z,100608.00
2019-04-27T09:57:19.111Z,100606.00
2019-04-27T09:59:48.801Z,100610.00
2019-04-27T10:02:18.872Z,100603.00
2019-04-27T10:04:48.654Z,100617.00
2019-04-27T10:07:18.375Z,100610.00
2019-04-27T10:09:48.124Z,100620.00
2019-04-27T10:12:17.813Z,100605.00
2019-04-27T10:14:47.934Z,100601.00
2019-04-27T10:17:17.740Z,100604.00
2019-04-27T10:19:47.456Z,100600.00
2019-04-27T10:22:17.148Z,100605.00
2019-04-27T10:24:47.117Z,100607.00
2019-04-27T10:27:16.826Z,100606.00
2019-04-27T10:29:46.897Z,100599.00
2019-04-27T10:32:16.887Z,100606.00
2019-04-27T10:34:46.643Z,100604.00
2019-04-27T10:37:16.339Z,100610.00
2019-04-27T10:39:46.178Z,100609.00
2019-04-27T10:42:16.032Z,100597.00
2019-04-27T10:44:46.281Z,100603.00
2019-04-27T10:47:16.699Z,100607.00
2019-04-27T10:49:48.411Z,100608.00
2019-04-27T10:52:17.868Z,100610.00
2019-04-27T10:54:47.692Z,100599.00
2019-04-27T10:57:17.466Z,100601.00
2019-04-27T10:59:47.187Z,100599.00
2019-04-27T11:02:16.953Z,100611.00
2019-04-27T11:04:52.883Z,100606.00
2019-04-27T11:07:26.011Z,100605.00
2019-04-27T11:09:55.856Z,100596.00
2019-04-27T11:12:25.855Z,100602.00
2019-04-27T11:14:55.761Z,100606.00
2019-04-27T11:17:26.760Z,100600.00
2019-04-27T11:19:56.762Z,100593.00
2019-04-27T11:22:26.548Z,100590.00
2019-04-27T11:24:56.485Z,100589.00
2019-04-27T11:27:26.251Z,100520.00
2019-04-27T11:29:56.477Z,100586.00
2019-04-27T11:32:26.276Z,100591.00
2019-04-27T11:35:09.353Z,100587.00
2019-04-27T11:37:39.083Z,100579.00
2019-04-27T11:40:09.585Z,100576.00
2019-04-27T11:42:39.347Z,100578.00
2019-04-27T11:45:10.391Z,100580.00
2019-04-27T11:47:40.112Z,100574.00
2019-04-27T11:50:11.713Z,100586.00
2019-04-27T11:52:41.403Z,100582.00
2019-04-27T11:55:12.274Z,100591.00
2019-04-27T11:57:41.944Z,100582.00
2019-04-27T12:00:16.645Z,100587.00
2019-04-27T12:02:46.399Z,100582.00
2019-04-27T12:05:17.119Z,100590.00
2019-04-27T12:07:47.806Z,100575.00
2019-04-27T12:10:18.210Z,100573.00
2019-04-27T12:12:47.919Z,100571.00
2019-04-27T12:15:18.460Z,100571.00
2019-04-27T12:17:48.196Z,100569.00
2019-04-27T12:20:18.091Z,100586.00
2019-04-27T12:22:47.808Z,100573.00
2019-04-27T12:25:18.322Z,100567.00
2019-04-27T12:27:58.128Z,100569.00
2019-04-27T12:30:32.039Z,100580.00
2019-04-27T12:33:01.779Z,100591.00
2019-04-27T12:35:31.500Z,100583.00
2019-04-27T12:38:01.209Z,100582.00
2019-04-27T12:40:30.908Z,100548.00
2019-04-27T12:43:00.646Z,100545.00
2019-04-27T12:45:30.960Z,100540.00
2019-04-27T12:48:00.744Z,100545.00
2019-04-27T12:50:30.456Z,100540.00
2019-04-27T12:53:02.990Z,100586.00
2019-04-27T12:55:44.395Z,100582.00
2019-04-27T12:58:24.021Z,100583.00
2019-04-27T13:00:54.267Z,100579.00
2019-04-27T13:03:25.720Z,100564.00
2019-04-27T13:05:55.745Z,100568.00
2019-04-27T13:08:26.003Z,100565.00
2019-04-27T13:10:57.416Z,100568.00
2019-04-27T13:13:27.275Z,100564.00
2019-04-27T13:15:56.961Z,100565.00
2019-04-27T13:18:26.670Z,100570.00
2019-04-27T13:20:56.409Z,100559.00
2019-04-27T13:23:26.219Z,100566.00
2019-04-27T13:25:56.458Z,100570.00
2019-04-27T13:28:26.234Z,100565.00
2019-04-27T13:30:56.068Z,100562.00
2019-04-27T13:33:26.320Z,100559.00
2019-04-27T13:35:56.035Z,100554.00
2019-04-27T13:38:26.753Z,100556.00
2019-04-27T13:41:06.673Z,100550.00
2019-04-27T13:43:37.737Z,100556.00
2019-04-27T13:46:18.587Z,100543.00
2019-04-27T13:49:05.774Z,100550.00
2019-04-27T13:51:52.991Z,100561.00
2019-04-27T13:54:26.475Z,100554.00
2019-04-27T13:56:56.173Z,100548.00
2019-04-27T13:59:25.662Z,100550.00
2019-04-27T14:01:55.353Z,100550.00
2019-04-27T14:04:25.019Z,100549.00
2019-04-27T14:06:54.747Z,100541.00
2019-04-27T14:09:24.450Z,100540.00
2019-04-27T14:11:59.093Z,100530.00
2019-04-27T14:14:28.916Z,100528.00
2019-04-27T14:16:58.641Z,100536.00
2019-04-27T14:19:28.362Z,100533.00
2019-04-27T14:21:59.111Z,100540.00
2019-04-27T14:24:41.460Z,100536.00
2019-04-27T14:27:11.952Z,100534.00
2019-04-27T14:29:41.640Z,100540.00
2019-04-27T14:32:11.813Z,100498.00
2019-04-27T14:34:41.521Z,100497.00
2019-04-27T14:37:11.242Z,100494.00
2019-04-27T14:39:40.981Z,100483.00
2019-04-27T14:42:10.930Z,100476.00
2019-04-27T14:44:40.600Z,100492.00
2019-04-27T14:47:10.355Z,100503.00
2019-04-27T14:49:40.396Z,100512.00
2019-04-27T14:52:10.368Z,100507.00
2019-04-27T14:54:47.975Z,100508.00
2019-04-27T14:57:11.504Z,100542.00
2019-04-27T14:59:41.257Z,100536.00
2019-04-27T15:02:10.958Z,100526.00
2019-04-27T15:04:42.375Z,100528.00
2019-04-27T15:07:13.824Z,100498.00
2019-04-27T15:09:45.211Z,100520.00
2019-04-27T15:12:15.748Z,100518.00
2019-04-27T15:14:45.986Z,100514.00
2019-04-27T15:17:17.624Z,100499.00
2019-04-27T15:19:53.899Z,100525.00
2019-04-27T15:22:29.938Z,100534.00
2019-04-27T15:25:09.362Z,100525.00
2019-04-27T15:27:37.525Z,100518.00
2019-04-27T15:30:11.580Z,100519.00
2019-04-27T15:33:03.147Z,100527.00
2019-04-27T15:35:43.998Z,100527.00
2019-04-27T15:38:18.713Z,100515.00
2019-04-27T15:41:17.028Z,100485.00
2019-04-27T15:43:48.673Z,100490.00
2019-04-27T15:46:18.847Z,100494.00
2019-04-27T15:48:48.839Z,100498.00
2019-04-27T15:51:21.162Z,100498.00
2019-04-27T15:53:53.729Z,100489.00
2019-04-27T15:56:21.859Z,100490.00
2019-04-27T15:58:51.598Z,100502.00
2019-04-27T16:01:21.459Z,100496.00
2019-04-27T16:03:52.203Z,100496.00
2019-04-27T16:06:21.934Z,100493.00
2019-04-27T16:08:52.012Z,100494.00
2019-04-27T16:11:21.821Z,100476.00
2019-04-27T16:13:51.479Z,100492.00
2019-04-27T16:16:24.551Z,100478.00
2019-04-27T16:18:52.691Z,100487.00
2019-04-27T16:21:22.377Z,100486.00
2019-04-27T16:23:52.053Z,100485.00
2019-04-27T16:26:21.800Z,100485.00
2019-04-27T16:28:53.472Z,100497.00
2019-04-27T16:31:24.825Z,100500.00
2019-04-27T16:33:59.182Z,100462.00
2019-04-27T16:36:25.708Z,100484.00
2019-04-27T16:39:03.650Z,100489.00
2019-04-27T16:41:33.179Z,100486.00
2019-04-27T16:44:06.865Z,100465.00
2019-04-27T16:46:34.782Z,100485.00
2019-04-27T16:49:07.500Z,100459.00
2019-04-27T16:51:40.184Z,100470.00
2019-04-27T16:54:11.127Z,100482.00
2019-04-27T16:56:40.501Z,100470.00
2019-04-27T16:59:33.865Z,100468.00
2019-04-27T17:01:46.443Z,100480.00
2019-04-27T17:04:14.991Z,100477.00
2019-04-27T17:06:46.339Z,100475.00
2019-04-27T17:09:16.222Z,100480.00
2019-04-27T17:11:50.437Z,100470.00
2019-04-27T17:14:49.035Z,100476.00
2019-04-27T17:17:34.226Z,100472.00
2019-04-27T17:20:04.662Z,100461.00
2019-04-27T17:22:34.352Z,100468.00
2019-04-27T17:25:04.210Z,100463.00
2019-04-27T17:27:48.307Z,100470.00
2019-04-27T17:30:18.906Z,100471.00
2019-04-27T17:32:58.811Z,100476.00
2019-04-27T17:35:29.052Z,100468.00
2019-04-27T17:37:59.604Z,100471.00
2019-04-27T17:40:30.005Z,100465.00
2019-04-27T17:43:06.790Z,100467.00
2019-04-27T17:45:36.108Z,100473.00
2019-04-27T17:48:07.325Z,100466.00
2019-04-27T17:50:36.375Z,100462.00
2019-04-27T17:53:07.939Z,100461.00
2019-04-27T17:55:38.152Z,100467.00
2019-04-27T17:58:07.821Z,100462.00
2019-04-27T18:00:41.686Z,100469.00
2019-04-27T18:03:12.548Z,100459.00
2019-04-27T18:05:43.784Z,100467.00
2019-04-27T18:08:13.514Z,100456.00
2019-04-27T18:10:43.357Z,100458.00
2019-04-27T18:13:13.025Z,100465.00
2019-04-27T18:15:45.808Z,100460.00
2019-04-27T18:18:27.079Z,100466.00
2019-04-27T18:20:56.589Z,100460.00
2019-04-27T18:23:28.248Z,100466.00
2019-04-27T18:26:06.008Z,100458.00
2019-04-27T18:28:38.647Z,100465.00
2019-04-27T18:31:15.954Z,100464.00
2019-04-27T18:33:43.876Z,100470.00
2019-04-27T18:36:14.470Z,100464.00
2019-04-27T18:38:44.422Z,100463.00
2019-04-27T18:41:14.165Z,100474.00
2019-04-27T18:43:50.674Z,100476.00
2019-04-27T18:46:21.729Z,100480.00
2019-04-27T18:49:05.965Z,100479.00
2019-04-27T18:51:52.981Z,100483.00
2019-04-27T18:54:24.344Z,100486.00
2019-04-27T18:57:04.224Z,100487.00
2019-04-27T18:59:25.471Z,100488.00
2019-04-27T19:01:55.514Z,100492.00
2019-04-27T19:04:25.204Z,100499.00
2019-04-27T19:06:54.894Z,100495.00
2019-04-27T19:09:24.630Z,100504.00
2019-04-27T19:11:56.732Z,100504.00
2019-04-27T19:14:25.761Z,100513.00
2019-04-27T19:16:55.692Z,100521.00
2019-04-27T19:19:25.583Z,100562.00
2019-04-27T19:21:55.302Z,100570.00
2019-04-27T19:24:25.029Z,100567.00
2019-04-27T19:27:18.322Z,100568.00
2019-04-27T19:29:46.266Z,100570.00
2019-04-27T19:32:17.927Z,100562.00
2019-04-27T19:34:48.053Z,100567.00
2019-04-27T19:37:18.385Z,100568.00
2019-04-27T19:39:49.731Z,100569.00
2019-04-27T19:42:20.366Z,100577.00
2019-04-27T19:44:50.255Z,100577.00
2019-04-27T19:47:19.912Z,100576.00
2019-04-27T19:49:49.698Z,100596.00
2019-04-27T19:52:22.489Z,100596.00
2019-04-27T19:54:50.775Z,100583.00
2019-04-27T19:57:32.687Z,100592.00
2019-04-27T19:59:55.454Z,100589.00
2019-04-27T20:02:25.468Z,100590.00
2019-04-27T20:05:01.491Z,100582.00
2019-04-27T20:07:31.450Z,100602.00
2019-04-27T20:10:02.583Z,100603.00
2019-04-27T20:12:32.568Z,100607.00
2019-04-27T20:15:02.535Z,100618.00
2019-04-27T20:17:33.346Z,100617.00
2019-04-27T20:20:04.973Z,100618.00
2019-04-27T20:22:34.786Z,100619.00
2019-04-27T20:25:05.972Z,100624.00
2019-04-27T20:27:45.941Z,100624.00
2019-04-27T20:30:11.212Z,100618.00
2019-04-27T20:32:40.942Z,100632.00
2019-04-27T20:35:11.788Z,100625.00
2019-04-27T20:37:41.673Z,100628.00
2019-04-27T20:40:12.011Z,100633.00
2019-04-27T20:42:41.708Z,100632.00
2019-04-27T20:45:12.097Z,100635.00
2019-04-27T20:47:41.808Z,100632.00
2019-04-27T20:50:11.647Z,100636.00
2019-04-27T20:53:00.371Z,100631.00
2019-04-27T20:55:32.216Z,100627.00
2019-04-27T20:58:02.802Z,100634.00
2019-04-27T21:00:32.686Z,100629.00
2019-04-27T21:03:20.594Z,100634.00
2019-04-27T21:06:01.017Z,100629.00
2019-04-27T21:08:32.061Z,100633.00
2019-04-27T21:11:01.747Z,100634.00
2019-04-27T21:13:31.456Z,100632.00
2019-04-27T21:16:02.248Z,100641.00
2019-04-27T21:18:32.087Z,100634.00
2019-04-27T21:21:01.792Z,100631.00
2019-04-27T21:23:31.479Z,100647.00
2019-04-27T21:26:02.115Z,100647.00
2019-04-27T21:28:32.672Z,100635.00
2019-04-27T21:31:02.366Z,100646.00
2019-04-27T21:33:32.083Z,100642.00
2019-04-27T21:36:01.783Z,100641.00
2019-04-27T21:38:31.803Z,100645.00
2019-04-27T21:41:01.499Z,100649.00
2019-04-27T21:43:32.773Z,100646.00
2019-04-27T21:46:02.703Z,100653.00
2019-04-27T21:48:32.427Z,100648.00
2019-04-27T21:51:02.119Z,100655.00
2019-04-27T21:53:51.229Z,100659.00
2019-04-27T21:56:21.313Z,100662.00
2019-04-27T21:58:51.203Z,100671.00
2019-04-27T22:01:31.956Z,100673.00
2019-04-27T22:04:01.878Z,100679.00
2019-04-27T22:06:31.560Z,100676.00
2019-04-27T22:09:01.480Z,100672.00
2019-04-27T22:11:32.017Z,100691.00
2019-04-27T22:14:02.069Z,100680.00
2019-04-27T22:16:31.784Z,100677.00
2019-04-27T22:19:02.053Z,100682.00
2019-04-27T22:21:31.940Z,100683.00
2019-04-27T22:24:11.142Z,100683.00
2019-04-27T22:26:41.529Z,100683.00
2019-04-27T22:29:12.103Z,100680.00
2019-04-27T22:31:41.893Z,100682.00
2019-04-27T22:34:11.596Z,100682.00
2019-04-27T22:36:41.349Z,100680.00
2019-04-27T22:39:31.630Z,100680.00
2019-04-27T22:42:20.697Z,100667.00
2019-04-27T22:44:54.241Z,100669.00
2019-04-27T22:47:23.900Z,100666.00
2019-04-27T22:49:53.585Z,100658.00
2019-04-27T22:52:23.248Z,100665.00
2019-04-27T22:54:53.224Z,100660.00
2019-04-27T22:57:31.412Z,100662.00
2019-04-27T23:00:11.698Z,100661.00
2019-04-27T23:02:47.923Z,100659.00
2019-04-27T23:05:17.946Z,100667.00
2019-04-27T23:07:47.663Z,100668.00
2019-04-27T23:10:17.382Z,100672.00
2019-04-27T23:12:47.051Z,100676.00
2019-04-27T23:15:20.109Z,100671.00
2019-04-27T23:17:54.446Z,100664.00
2019-04-27T23:20:24.375Z,100674.00
2019-04-27T23:22:54.237Z,100661.00
2019-04-27T23:25:24.049Z,100669.00
2019-04-27T23:27:54.361Z,100657.00
2019-04-27T23:30:46.965Z,100655.00
2019-04-27T23:33:16.679Z,100664.00
2019-04-27T23:35:46.348Z,100674.00
2019-04-27T23:38:18.026Z,100664.00
2019-04-27T23:40:47.508Z,100660.00
2019-04-27T23:43:17.241Z,100665.00
2019-04-27T23:45:47.247Z,100658.00
2019-04-27T23:48:16.945Z,100662.00
2019-04-27T23:50:48.313Z,100666.00
2019-04-27T23:53:19.637Z,100664.00
2019-04-27T23:55:49.329Z,100657.00
2019-04-27T23:58:19.146Z,100663.00
